createdAt,value
2018-08-23T00:00:37.916Z,100539.02
2018-08-23T00:03:12.901Z,100536.32
2018-08-23T00:05:45.101Z,100534.98
2018-08-23T00:08:13.115Z,100524.40
2018-08-23T00:10:41.097Z,100525.76
2018-08-23T00:13:09.161Z,100523.91
2018-08-23T00:15:37.274Z,100531.60
2018-08-23T00:18:05.270Z,100527.58
2018-08-23T00:20:36.199Z,100524.89
2018-08-23T00:23:04.671Z,100526.94
2018-08-23T00:25:32.864Z,100522.38
2018-08-23T00:28:00.932Z,100517.86
2018-08-23T00:30:29.725Z,100520.52
2018-08-23T00:32:58.712Z,100520.88
2018-08-23T00:35:26.764Z,100515.34
2018-08-23T00:37:54.768Z,100515.53
2018-08-23T00:40:22.809Z,100521.56
2018-08-23T00:42:56.324Z,100509.97
2018-08-23T00:45:24.334Z,100505.75
2018-08-23T00:47:52.343Z,100507.08
2018-08-23T00:50:29.544Z,100503.20
2018-08-23T00:52:57.554Z,100504.69
2018-08-23T00:55:28.962Z,100513.27
2018-08-23T00:57:56.965Z,100508.42
2018-08-23T01:00:26.159Z,100502.03
2018-08-23T01:02:58.060Z,100500.63
2018-08-23T01:05:31.570Z,100503.48
2018-08-23T01:07:59.565Z,100498.97
2018-08-23T01:10:27.553Z,100492.98
2018-08-23T01:13:00.905Z,100489.62
2018-08-23T01:15:29.623Z,100484.87
2018-08-23T01:18:10.386Z,100478.31
2018-08-23T01:20:39.163Z,100483.69
2018-08-23T01:23:07.233Z,100486.38
2018-08-23T01:25:36.634Z,100482.52
2018-08-23T01:28:04.940Z,100484.34
2018-08-23T01:30:33.029Z,100486.03
2018-08-23T01:33:01.056Z,100487.38
2018-08-23T01:35:29.092Z,100486.89
2018-08-23T01:37:57.065Z,100486.20
2018-08-23T01:40:25.096Z,100480.84
2018-08-23T01:42:53.113Z,100485.20
2018-08-23T01:45:21.120Z,100483.52
2018-08-23T01:47:59.257Z,100472.80
2018-08-23T01:50:27.800Z,100468.11
2018-08-23T01:52:57.108Z,100474.11
2018-08-23T01:55:25.793Z,100466.71
2018-08-23T01:57:54.132Z,100466.52
2018-08-23T02:00:24.312Z,100465.02
2018-08-23T02:02:52.354Z,100461.36
2018-08-23T02:05:20.345Z,100462.70
2018-08-23T02:07:48.338Z,100460.70
2018-08-23T02:10:16.345Z,100458.34
2018-08-23T02:12:49.882Z,100453.84
2018-08-23T02:15:17.969Z,100465.23
2018-08-23T02:17:51.589Z,100467.02
2018-08-23T02:20:19.953Z,100468.31
2018-08-23T02:22:47.964Z,100463.31
2018-08-23T02:25:17.052Z,100458.45
2018-08-23T02:28:05.236Z,100459.64
2018-08-23T02:30:54.717Z,100464.80
2018-08-23T02:33:22.757Z,100464.98
2018-08-23T02:36:22.492Z,100465.98
2018-08-23T02:38:56.054Z,100457.28
2018-08-23T02:41:24.056Z,100453.56
2018-08-23T02:43:52.057Z,100449.71
2018-08-23T02:46:20.054Z,100446.86
2018-08-23T02:48:48.077Z,100443.84
2018-08-23T02:51:16.081Z,100444.69
2018-08-23T02:53:46.952Z,100443.52
2018-08-23T02:56:18.370Z,100437.78
2018-08-23T02:59:00.974Z,100435.12
2018-08-23T03:01:30.759Z,100436.77
2018-08-23T03:04:07.445Z,100436.92
2018-08-23T03:06:39.999Z,100439.22
2018-08-23T03:09:08.558Z,100437.40
2018-08-23T03:11:37.261Z,100435.40
2018-08-23T03:14:06.698Z,100435.94
2018-08-23T03:16:47.646Z,100432.23
2018-08-23T03:19:15.959Z,100434.38
2018-08-23T03:21:44.229Z,100431.05
2018-08-23T03:24:12.394Z,100432.19
2018-08-23T03:26:40.641Z,100427.35
2018-08-23T03:29:08.825Z,100419.81
2018-08-23T03:31:36.833Z,100417.45
2018-08-23T03:34:04.873Z,100420.14
2018-08-23T03:36:32.914Z,100419.45
2018-08-23T03:39:00.946Z,100423.30
2018-08-23T03:41:28.937Z,100425.33
2018-08-23T03:43:56.928Z,100420.63
2018-08-23T03:46:24.932Z,100415.28
2018-08-23T03:48:58.281Z,100417.11
2018-08-23T03:51:26.468Z,100416.42
2018-08-23T03:54:00.830Z,100418.88
2018-08-23T03:56:28.824Z,100416.87
2018-08-23T03:58:56.808Z,100419.55
2018-08-23T04:01:24.829Z,100419.26
2018-08-23T04:03:53.381Z,100416.06
2018-08-23T04:06:31.683Z,100422.30
2018-08-23T04:08:59.684Z,100417.56
2018-08-23T04:11:27.689Z,100414.22
2018-08-23T04:13:56.060Z,100417.92
2018-08-23T04:16:26.766Z,100410.89
2018-08-23T04:18:55.121Z,100416.25
2018-08-23T04:21:23.164Z,100419.55
2018-08-23T04:23:51.273Z,100413.03
2018-08-23T04:26:19.662Z,100417.89
2018-08-23T04:28:47.680Z,100412.86
2018-08-23T04:31:15.724Z,100419.20
2018-08-23T04:33:43.736Z,100413.84
2018-08-23T04:36:31.192Z,100415.53
2018-08-23T04:39:04.981Z,100417.89
2018-08-23T04:41:33.276Z,100412.23
2018-08-23T04:44:08.958Z,100418.30
2018-08-23T04:46:36.949Z,100417.66
2018-08-23T04:49:06.697Z,100423.55
2018-08-23T04:51:35.513Z,100418.86
2018-08-23T04:54:03.518Z,100417.56
2018-08-23T04:56:31.960Z,100415.55
2018-08-23T04:58:59.969Z,100422.77
2018-08-23T05:01:27.959Z,100414.70
2018-08-23T05:03:56.001Z,100421.94
2018-08-23T05:06:23.980Z,100419.25
2018-08-23T05:08:52.004Z,100421.07
2018-08-23T05:11:20.050Z,100419.43
2018-08-23T05:13:48.345Z,100426.04
2018-08-23T05:16:16.666Z,100423.84
2018-08-23T05:18:44.908Z,100420.14
2018-08-23T05:21:12.945Z,100425.65
2018-08-23T05:23:41.005Z,100426.36
2018-08-23T05:26:12.888Z,100435.20
2018-08-23T05:28:43.121Z,100430.00
2018-08-23T05:31:11.109Z,100430.34
2018-08-23T05:33:39.165Z,100423.00
2018-08-23T05:36:12.561Z,100424.94
2018-08-23T05:38:40.613Z,100424.98
2018-08-23T05:41:13.140Z,100419.63
2018-08-23T05:43:41.428Z,100421.81
2018-08-23T05:46:09.604Z,100419.15
2018-08-23T05:48:37.605Z,100414.44
2018-08-23T05:51:07.746Z,100410.09
2018-08-23T05:53:43.054Z,100415.47
2018-08-23T05:56:11.136Z,100412.93
2018-08-23T05:58:39.225Z,100414.77
2018-08-23T06:01:07.313Z,100413.42
2018-08-23T06:03:37.066Z,100411.42
2018-08-23T06:06:05.145Z,100404.38
2018-08-23T06:08:33.840Z,100400.51
2018-08-23T06:11:09.073Z,100400.33
2018-08-23T06:13:37.365Z,100397.30
2018-08-23T06:16:05.568Z,100398.97
2018-08-23T06:18:34.844Z,100403.01
2018-08-23T06:21:02.913Z,100401.94
2018-08-23T06:24:10.161Z,100402.63
2018-08-23T06:26:46.358Z,100404.46
2018-08-23T06:29:20.070Z,100408.67
2018-08-23T06:31:51.079Z,100404.69
2018-08-23T06:34:19.113Z,100408.70
2018-08-23T06:36:47.477Z,100406.58
2018-08-23T06:39:15.536Z,100411.11
2018-08-23T06:41:43.809Z,100403.04
2018-08-23T06:44:12.228Z,100404.32
2018-08-23T06:46:40.240Z,100403.64
2018-08-23T06:49:08.270Z,100403.13
2018-08-23T06:51:36.300Z,100402.83
2018-08-23T06:54:04.395Z,100406.91
2018-08-23T06:56:35.348Z,100413.30
2018-08-23T06:59:03.422Z,100420.52
2018-08-23T07:01:37.647Z,100415.47
2018-08-23T07:04:11.337Z,100410.70
2018-08-23T07:06:39.399Z,100414.30
2018-08-23T07:09:14.321Z,100413.28
2018-08-23T07:11:42.533Z,100416.83
2018-08-23T07:14:12.668Z,100413.27
2018-08-23T07:16:41.569Z,100413.41
2018-08-23T07:19:24.216Z,100415.41
2018-08-23T07:21:52.797Z,100418.58
2018-08-23T07:24:36.136Z,100411.66
2018-08-23T07:27:04.938Z,100415.55
2018-08-23T07:29:33.421Z,100420.88
2018-08-23T07:32:03.680Z,100423.79
2018-08-23T07:34:31.697Z,100427.37
2018-08-23T07:37:02.981Z,100425.44
2018-08-23T07:39:30.969Z,100421.45
2018-08-23T07:41:58.983Z,100422.74
2018-08-23T07:44:26.969Z,100429.63
2018-08-23T07:46:54.994Z,100423.33
2018-08-23T07:49:23.024Z,100418.61
2018-08-23T07:51:52.309Z,100420.13
2018-08-23T07:54:21.504Z,100424.67
2018-08-23T07:56:49.557Z,100420.57
2018-08-23T07:59:17.556Z,100423.52
2018-08-23T08:01:45.586Z,100425.10
2018-08-23T08:04:14.913Z,100426.16
2018-08-23T08:06:43.102Z,100420.25
2018-08-23T08:09:11.754Z,100430.34
2018-08-23T08:11:47.064Z,100425.12
2018-08-23T08:14:20.461Z,100424.82
2018-08-23T08:16:48.564Z,100427.51
2018-08-23T08:19:16.558Z,100426.52
2018-08-23T08:21:44.636Z,100430.73
2018-08-23T08:24:12.592Z,100427.23
2018-08-23T08:26:40.644Z,100431.14
2018-08-23T08:29:08.641Z,100441.17
2018-08-23T08:31:36.691Z,100439.10
2018-08-23T08:34:05.755Z,100442.11
2018-08-23T08:36:34.469Z,100445.46
2018-08-23T08:39:04.567Z,100441.77
2018-08-23T08:41:33.385Z,100438.05
2018-08-23T08:44:01.673Z,100434.18
2018-08-23T08:46:29.681Z,100434.10
2018-08-23T08:48:57.868Z,100433.12
2018-08-23T08:51:28.593Z,100433.45
2018-08-23T08:53:57.416Z,100436.53
2018-08-23T08:56:29.072Z,100429.75
2018-08-23T08:58:57.162Z,100432.34
2018-08-23T09:01:25.135Z,100431.96
2018-08-23T09:03:53.123Z,100424.66
2018-08-23T09:06:27.545Z,100418.49
2018-08-23T09:08:55.564Z,100423.73
2018-08-23T09:11:23.986Z,100416.52
2018-08-23T09:13:51.984Z,100414.57
2018-08-23T09:16:22.725Z,100421.00
2018-08-23T09:18:59.141Z,100413.14
2018-08-23T09:21:27.481Z,100406.73
2018-08-23T09:23:55.505Z,100395.00
2018-08-23T09:26:28.952Z,100395.23
2018-08-23T09:28:56.945Z,100394.19
2018-08-23T09:31:25.039Z,100393.66
2018-08-23T09:33:53.039Z,100387.75
2018-08-23T09:36:21.034Z,100384.88
2018-08-23T09:38:49.128Z,100383.36
2018-08-23T09:41:17.265Z,100385.73
2018-08-23T09:43:45.266Z,100385.02
2018-08-23T09:46:13.377Z,100380.75
2018-08-23T09:48:41.428Z,100373.26
2018-08-23T09:51:16.948Z,100375.00
2018-08-23T09:53:45.000Z,100375.95
2018-08-23T09:56:44.174Z,100369.75
2018-08-23T09:59:12.140Z,100359.84
2018-08-23T10:01:45.473Z,100358.87
2018-08-23T10:04:18.835Z,100356.61
2018-08-23T10:06:52.069Z,100348.97
2018-08-23T10:09:23.488Z,100347.20
2018-08-23T10:11:56.887Z,100336.92
2018-08-23T10:14:30.347Z,100333.54
2018-08-23T10:17:03.713Z,100335.75
2018-08-23T10:19:37.068Z,100333.64
2018-08-23T10:22:10.505Z,100336.06
2018-08-23T10:24:38.523Z,100339.16
2018-08-23T10:27:06.528Z,100328.86
2018-08-23T10:29:34.541Z,100331.31
2018-08-23T10:32:02.628Z,100329.86
2018-08-23T10:34:30.592Z,100326.48
2018-08-23T10:36:58.597Z,100317.55
2018-08-23T10:39:26.591Z,100314.11
2018-08-23T10:41:54.589Z,100310.39
2018-08-23T10:44:22.761Z,100307.00
2018-08-23T10:46:55.600Z,100300.56
2018-08-23T10:49:23.729Z,100297.52
2018-08-23T10:51:51.793Z,100287.80
2018-08-23T10:54:19.999Z,100288.09
2018-08-23T10:56:48.164Z,100283.41
2018-08-23T10:59:16.216Z,100286.23
2018-08-23T11:01:44.200Z,100293.30
2018-08-23T11:04:12.226Z,100287.06
2018-08-23T11:06:45.776Z,100276.27
2018-08-23T11:09:19.136Z,100278.20
2018-08-23T11:11:47.247Z,100280.36
2018-08-23T11:14:20.799Z,100276.44
2018-08-23T11:16:54.424Z,100278.05
2018-08-23T11:20:30.599Z,100278.44
2018-08-23T11:22:58.646Z,100275.98
2018-08-23T11:25:26.729Z,100280.31
2018-08-23T11:27:55.121Z,100274.05
2018-08-23T11:30:23.140Z,100276.91
2018-08-23T11:32:52.657Z,100269.20
2018-08-23T11:35:21.044Z,100265.68
2018-08-23T11:37:49.661Z,100272.71
2018-08-23T11:40:17.948Z,100258.77
2018-08-23T11:42:46.095Z,100255.31
2018-08-23T11:45:14.049Z,100253.13
2018-08-23T11:47:42.137Z,100248.97
2018-08-23T11:50:10.287Z,100241.65
2018-08-23T11:52:38.345Z,100248.48
2018-08-23T11:55:06.373Z,100239.05
2018-08-23T11:57:34.413Z,100248.08
2018-08-23T12:00:02.409Z,100252.91
2018-08-23T12:02:30.397Z,100243.16
2018-08-23T12:04:58.412Z,100244.47
2018-08-23T12:07:26.411Z,100245.11
2018-08-23T12:09:54.511Z,100246.02
2018-08-23T12:12:23.108Z,100235.59
2018-08-23T12:14:55.260Z,100236.81
2018-08-23T12:17:23.553Z,100240.47
2018-08-23T12:19:51.657Z,100226.77
2018-08-23T12:22:23.849Z,100229.05
2018-08-23T12:24:51.949Z,100228.94
2018-08-23T12:27:20.232Z,100228.09
2018-08-23T12:29:48.218Z,100216.87
2018-08-23T12:32:16.300Z,100221.06
2018-08-23T12:34:44.415Z,100217.30
2018-08-23T12:37:17.988Z,100225.30
2018-08-23T12:39:51.405Z,100217.45
2018-08-23T12:42:24.752Z,100217.63
2018-08-23T12:44:52.775Z,100214.31
2018-08-23T12:47:20.997Z,100222.79
2018-08-23T12:49:49.761Z,100213.12
2018-08-23T12:52:18.531Z,100211.48
2018-08-23T12:54:46.782Z,100204.72
2018-08-23T12:57:15.013Z,100200.13
2018-08-23T12:59:43.043Z,100195.16
2018-08-23T13:02:11.211Z,100195.81
2018-08-23T13:04:39.289Z,100201.95
2018-08-23T13:07:07.458Z,100200.16
2018-08-23T13:09:35.777Z,100195.08
2018-08-23T13:12:03.860Z,100194.65
2018-08-23T13:14:32.113Z,100186.56
2018-08-23T13:17:00.418Z,100179.94
2018-08-23T13:19:28.515Z,100177.64
2018-08-23T13:22:01.993Z,100176.83
2018-08-23T13:24:30.423Z,100178.92
2018-08-23T13:26:58.453Z,100179.09
2018-08-23T13:29:26.909Z,100173.84
2018-08-23T13:31:55.400Z,100169.04
2018-08-23T13:34:23.341Z,100164.00
2018-08-23T13:36:51.603Z,100168.31
2018-08-23T13:39:19.525Z,100174.78
2018-08-23T13:41:47.522Z,100171.19
2018-08-23T13:44:15.516Z,100169.97
2018-08-23T13:46:43.540Z,100170.79
2018-08-23T13:49:11.571Z,100156.91
2018-08-23T13:51:39.702Z,100157.64
2018-08-23T13:54:07.705Z,100153.09
2018-08-23T13:56:35.716Z,100164.03
2018-08-23T13:59:03.797Z,100162.94
2018-08-23T14:01:31.865Z,100155.78
2018-08-23T14:03:59.894Z,100163.81
2018-08-23T14:06:28.052Z,100155.80
2018-08-23T14:08:56.150Z,100152.43
2018-08-23T14:11:24.209Z,100145.45
2018-08-23T14:13:52.350Z,100145.28
2018-08-23T14:16:20.533Z,100144.79
2018-08-23T14:18:48.558Z,100137.27
2018-08-23T14:21:16.662Z,100143.96
2018-08-23T14:23:44.682Z,100140.77
2018-08-23T14:26:12.729Z,100142.13
2018-08-23T14:28:40.749Z,100143.66
2018-08-23T14:31:08.779Z,100135.04
2018-08-23T14:33:36.776Z,100127.93
2018-08-23T14:36:04.885Z,100134.50
2018-08-23T14:38:34.061Z,100130.64
2018-08-23T14:41:01.934Z,100126.31
2018-08-23T14:43:29.940Z,100127.25
2018-08-23T14:46:03.443Z,100122.77
2018-08-23T14:48:31.496Z,100127.42
2018-08-23T14:50:59.484Z,100118.66
2018-08-23T14:53:28.704Z,100111.29
2018-08-23T14:56:02.096Z,100110.83
2018-08-23T14:58:30.701Z,100109.86
2018-08-23T15:00:58.732Z,100109.40
2018-08-23T15:03:26.785Z,100115.11
2018-08-23T15:05:54.764Z,100113.31
2018-08-23T15:08:22.769Z,100106.39
2018-08-23T15:10:50.871Z,100101.52
2018-08-23T15:13:18.921Z,100105.30
2018-08-23T15:15:48.746Z,100101.41
2018-08-23T15:18:17.781Z,100100.59
2018-08-23T15:20:45.885Z,100096.88
2018-08-23T15:23:13.913Z,100103.37
2018-08-23T15:25:41.904Z,100104.61
2018-08-23T15:28:09.920Z,100099.62
2018-08-23T15:30:37.904Z,100095.37
2018-08-23T15:33:06.123Z,100087.86
2018-08-23T15:35:34.116Z,100093.49
2018-08-23T15:38:02.148Z,100087.77
2018-08-23T15:40:30.152Z,100089.73
2018-08-23T15:42:58.192Z,100083.30
2018-08-23T15:45:26.213Z,100087.77
2018-08-23T15:47:54.279Z,100077.71
2018-08-23T15:50:22.917Z,100071.04
2018-08-23T15:52:51.388Z,100069.36
2018-08-23T15:55:19.646Z,100077.03
2018-08-23T15:57:47.602Z,100075.12
2018-08-23T16:00:15.695Z,100077.20
2018-08-23T16:02:43.899Z,100075.41
2018-08-23T16:05:11.949Z,100076.60
2018-08-23T16:07:39.947Z,100077.66
2018-08-23T16:10:08.485Z,100076.89
2018-08-23T16:12:36.478Z,100079.98
2018-08-23T16:15:09.829Z,100076.48
2018-08-23T16:17:43.397Z,100066.95
2018-08-23T16:20:16.745Z,100067.31
2018-08-23T16:22:45.186Z,100065.05
2018-08-23T16:25:13.229Z,100067.28
2018-08-23T16:27:41.224Z,100064.88
2018-08-23T16:30:09.269Z,100060.59
2018-08-23T16:32:37.552Z,100061.27
2018-08-23T16:35:05.596Z,100059.11
2018-08-23T16:37:34.274Z,100057.66
2018-08-23T16:40:02.484Z,100060.00
2018-08-23T16:42:31.060Z,100061.89
2018-08-23T16:44:59.141Z,100062.78
2018-08-23T16:47:27.197Z,100058.09
2018-08-23T16:49:55.215Z,100042.80
2018-08-23T16:52:23.269Z,100049.32
2018-08-23T16:54:51.286Z,100046.36
2018-08-23T16:57:19.318Z,100049.70
2018-08-23T16:59:47.334Z,100046.89
2018-08-23T17:02:15.368Z,100044.84
2018-08-23T17:04:44.577Z,100037.78
2018-08-23T17:07:13.534Z,100032.24
2018-08-23T17:09:41.558Z,100038.91
2018-08-23T17:12:09.673Z,100033.06
2018-08-23T17:14:37.664Z,100034.97
2018-08-23T17:17:11.245Z,100031.19
2018-08-23T17:19:46.185Z,100030.24
2018-08-23T17:22:14.193Z,100031.11
2018-08-23T17:24:42.354Z,100028.66
2018-08-23T17:27:10.210Z,100024.17
2018-08-23T17:29:38.408Z,100028.38
2018-08-23T17:32:06.561Z,100024.52
2018-08-23T17:34:34.601Z,100028.02
2018-08-23T17:37:02.792Z,100026.20
2018-08-23T17:39:30.793Z,100028.44
2018-08-23T17:41:58.833Z,100033.83
2018-08-23T17:44:26.854Z,100029.41
2018-08-23T17:46:55.064Z,100026.34
2018-08-23T17:49:23.180Z,100019.31
2018-08-23T17:51:51.133Z,100024.65
2018-08-23T17:54:19.208Z,100017.78
2018-08-23T17:56:47.465Z,100014.56
2018-08-23T17:59:15.551Z,100009.23
2018-08-23T18:01:44.538Z,100013.60
2018-08-23T18:04:12.639Z,100010.48
2018-08-23T18:06:40.808Z,100018.46
2018-08-23T18:09:10.417Z,100017.34
2018-08-23T18:11:38.583Z,100011.38
2018-08-23T18:14:06.733Z,100018.46
2018-08-23T18:16:40.096Z,100011.84
2018-08-23T18:19:08.105Z,100015.20
2018-08-23T18:21:36.141Z,100017.10
2018-08-23T18:24:04.266Z,100014.45
2018-08-23T18:26:32.398Z,100017.25
2018-08-23T18:29:00.417Z,100008.80
2018-08-23T18:31:28.428Z,100007.83
2018-08-23T18:33:56.457Z,100007.89
2018-08-23T18:36:24.496Z,100009.94
2018-08-23T18:38:52.568Z,100012.42
2018-08-23T18:41:21.853Z,100007.94
2018-08-23T18:43:49.904Z,100011.44
2018-08-23T18:46:17.908Z,100017.72
2018-08-23T18:48:46.917Z,100010.72
2018-08-23T18:51:14.932Z,100022.14
2018-08-23T18:53:42.984Z,100014.95
2018-08-23T18:56:11.035Z,100016.51
2018-08-23T18:58:39.131Z,100013.44
2018-08-23T19:01:07.158Z,100011.75
2018-08-23T19:03:35.238Z,100014.59
2018-08-23T19:06:03.578Z,100021.52
2018-08-23T19:08:31.633Z,100018.32
2018-08-23T19:10:59.829Z,100021.91
2018-08-23T19:13:28.239Z,100026.89
2018-08-23T19:16:01.753Z,100024.86
2018-08-23T19:18:29.779Z,100033.08
2018-08-23T19:20:57.873Z,100025.38
2018-08-23T19:23:25.968Z,100023.83
2018-08-23T19:25:54.125Z,100032.98
2018-08-23T19:28:22.188Z,100043.49
2018-08-23T19:30:50.193Z,100041.41
2018-08-23T19:33:19.283Z,100042.03
2018-08-23T19:35:47.331Z,100043.17
2018-08-23T19:38:15.537Z,100046.66
2018-08-23T19:40:43.572Z,100040.64
2018-08-23T19:43:11.681Z,100048.95
2018-08-23T19:45:45.281Z,100049.45
2018-08-23T19:48:13.450Z,100044.13
2018-08-23T19:50:41.449Z,100042.98
2018-08-23T19:53:09.628Z,100045.02
2018-08-23T19:55:37.869Z,100043.10
2018-08-23T19:58:05.932Z,100042.16
2018-08-23T20:00:34.018Z,100042.65
2018-08-23T20:03:02.164Z,100044.67
2018-08-23T20:05:30.192Z,100044.94
2018-08-23T20:07:58.221Z,100046.80
2018-08-23T20:10:26.311Z,100049.57
2018-08-23T20:12:54.361Z,100037.37
2018-08-23T20:15:24.357Z,100044.72
2018-08-23T20:17:52.922Z,100040.20
2018-08-23T20:20:20.918Z,100041.00
2018-08-23T20:22:48.916Z,100035.12
2018-08-23T20:25:16.975Z,100038.23
2018-08-23T20:27:46.112Z,100044.34
2018-08-23T20:30:14.145Z,100041.70
2018-08-23T20:32:42.180Z,100036.58
2018-08-23T20:35:10.348Z,100034.59
2018-08-23T20:37:38.729Z,100036.13
2018-08-23T20:40:06.945Z,100034.65
2018-08-23T20:42:34.972Z,100036.70
2018-08-23T20:45:03.020Z,100030.36
2018-08-23T20:47:31.056Z,100033.24
2018-08-23T20:49:59.134Z,100029.96
2018-08-23T20:52:27.204Z,100029.66
2018-08-23T20:54:55.280Z,100021.97
2018-08-23T20:57:23.289Z,100030.45
2018-08-23T20:59:51.312Z,100022.73
2018-08-23T21:02:19.418Z,100020.12
2018-08-23T21:04:47.461Z,100024.92
2018-08-23T21:07:15.545Z,100023.20
2018-08-23T21:09:43.586Z,100020.13
2018-08-23T21:12:11.580Z,100019.17
2018-08-23T21:14:39.594Z,100016.22
2018-08-23T21:17:08.261Z,100020.50
2018-08-23T21:19:36.274Z,100016.77
2018-08-23T21:22:04.288Z,100018.38
2018-08-23T21:24:32.377Z,100015.91
2018-08-23T21:27:00.767Z,100017.98
2018-08-23T21:29:28.924Z,100017.73
2018-08-23T21:31:57.013Z,100019.25
2018-08-23T21:34:25.323Z,100019.77
2018-08-23T21:39:20.513Z,100018.64
2018-08-23T21:41:48.591Z,100019.87
2018-08-23T21:44:16.638Z,100016.61
2018-08-23T21:46:44.729Z,100014.45
2018-08-23T21:49:12.725Z,100017.80
2018-08-23T21:51:40.770Z,100014.88
2018-08-23T21:54:08.820Z,100017.14
2018-08-23T21:56:36.848Z,100018.93
2018-08-23T21:59:04.892Z,100014.72
2018-08-23T22:01:32.936Z,100012.06
2018-08-23T22:04:01.105Z,100010.76
2018-08-23T22:06:29.126Z,100014.45
2018-08-23T22:08:57.303Z,100015.80
2018-08-23T22:11:25.352Z,100015.87
2018-08-23T22:13:53.488Z,100005.31
2018-08-23T22:16:21.517Z,100002.14
2018-08-23T22:18:49.628Z,100005.00
2018-08-23T22:21:17.753Z,100004.34
2018-08-23T22:23:45.777Z,100004.17
2018-08-23T22:26:13.876Z,100004.31
2018-08-23T22:28:41.993Z,99999.52
2018-08-23T22:31:10.020Z,99996.28
2018-08-23T22:33:38.121Z,99997.31
2018-08-23T22:36:06.086Z,99986.07
2018-08-23T22:38:34.106Z,99988.89
2018-08-23T22:41:02.481Z,99984.23
2018-08-23T22:43:30.490Z,99985.52
2018-08-23T22:45:58.505Z,99983.89
2018-08-23T22:48:26.522Z,99986.07
2018-08-23T22:50:54.811Z,99977.69
2018-08-23T22:55:47.701Z,99971.92
2018-08-23T22:58:15.640Z,99972.92
2018-08-23T23:00:43.668Z,99970.86
2018-08-23T23:03:18.272Z,99975.95
2018-08-23T23:05:46.296Z,99974.20
2018-08-23T23:08:14.328Z,99967.89
2018-08-23T23:10:42.368Z,99965.75
2018-08-23T23:13:10.405Z,99966.62
2018-08-23T23:15:38.440Z,99969.02
2018-08-23T23:18:06.459Z,99970.37
2018-08-23T23:20:34.481Z,99969.23
2018-08-23T23:23:02.781Z,99963.09
2018-08-23T23:25:30.805Z,99959.41
2018-08-23T23:27:58.804Z,99959.27
2018-08-23T23:30:26.798Z,99954.78
2018-08-23T23:32:55.908Z,99953.32
2018-08-23T23:35:23.903Z,99963.94
2018-08-23T23:37:51.942Z,99952.38
2018-08-23T23:40:20.096Z,99950.84
2018-08-23T23:42:48.129Z,99950.89
2018-08-23T23:45:16.184Z,99953.52
2018-08-23T23:47:44.259Z,99951.02
2018-08-23T23:50:12.261Z,99948.66
2018-08-23T23:52:40.261Z,99945.23
2018-08-23T23:55:08.407Z,99942.25
2018-08-23T23:57:36.448Z,99942.03
